createdAt,value
2018-06-22T00:01:24.000Z,38.024
2018-06-22T00:11:24.000Z,38.132
2018-06-22T00:21:24.000Z,38.073
2018-06-22T00:31:24.000Z,38.125
2018-06-22T00:41:24.000Z,38.163
2018-06-22T00:51:24.000Z,38.182
2018-06-22T01:01:24.000Z,38.291
2018-06-22T01:11:24.000Z,38.428
2018-06-22T01:21:24.000Z,38.362
2018-06-22T01:31:24.000Z,38.522
2018-06-22T01:41:28.000Z,38.584
2018-06-22T01:51:25.000Z,38.627
2018-06-22T02:01:24.000Z,38.656
2018-06-22T02:11:24.000Z,38.664
2018-06-22T02:21:24.000Z,38.75
2018-06-22T02:31:24.000Z,38.735
2018-06-22T02:41:25.000Z,38.841
2018-06-22T02:51:26.000Z,38.883
2018-06-22T03:01:24.000Z,38.958
2018-06-22T03:11:24.000Z,39.065
2018-06-22T03:21:24.000Z,39.171
2018-06-22T03:31:24.000Z,39.313
2018-06-22T03:41:24.000Z,39.398
2018-06-22T03:51:24.000Z,39.496
2018-06-22T04:01:24.000Z,39.722
2018-06-22T04:11:24.000Z,39.884
2018-06-22T04:21:24.000Z,40.047
2018-06-22T04:31:24.000Z,40.221
2018-06-22T04:41:24.000Z,40.329
2018-06-22T04:51:24.000Z,40.404
2018-06-22T05:01:24.000Z,40.467
2018-06-22T05:11:24.000Z,40.499
2018-06-22T05:21:24.000Z,40.626
2018-06-22T05:31:24.000Z,40.66
2018-06-22T05:41:24.000Z,42.002
2018-06-22T05:51:24.000Z,42.895
2018-06-22T06:01:24.000Z,42.778
2018-06-22T06:11:24.000Z,42.79
2018-06-22T06:21:33.000Z,42.89
2018-06-22T06:31:33.000Z,43.022
2018-06-22T06:41:33.000Z,43.098
2018-06-22T06:51:34.000Z,43.058
2018-06-22T07:01:34.000Z,43.049
2018-06-22T07:11:34.000Z,42.762
2018-06-22T07:21:34.000Z,43.32
2018-06-22T07:31:34.000Z,44.046
2018-06-22T07:41:35.000Z,43.589
2018-06-22T07:51:34.000Z,43.25
2018-06-22T08:01:34.000Z,43.287
2018-06-22T08:11:34.000Z,42.624
2018-06-22T08:21:34.000Z,42.084
2018-06-22T08:31:34.000Z,42.129
2018-06-22T08:41:35.000Z,42.093
2018-06-22T08:51:34.000Z,41.704
2018-06-22T09:01:34.000Z,40.652
2018-06-22T09:11:34.000Z,40.891
2018-06-22T09:21:34.000Z,40.59
2018-06-22T09:31:34.000Z,40.515
2018-06-22T09:41:34.000Z,40.35
2018-06-22T09:51:34.000Z,39.915
2018-06-22T10:01:34.000Z,39.549
2018-06-22T10:11:34.000Z,39.933
2018-06-22T10:21:34.000Z,39.734
2018-06-22T10:31:34.000Z,40.314
2018-06-22T10:41:34.000Z,39.139
2018-06-22T10:51:34.000Z,38.934
2018-06-22T11:01:34.000Z,38.968
2018-06-22T11:11:34.000Z,38.334
2018-06-22T11:21:34.000Z,38.666
2018-06-22T11:31:34.000Z,38.829
2018-06-22T11:41:34.000Z,39.52
2018-06-22T11:51:34.000Z,39.393
2018-06-22T12:01:34.000Z,38.896
2018-06-22T12:11:34.000Z,39.351
2018-06-22T12:21:34.000Z,40.097
2018-06-22T12:31:34.000Z,40.003
2018-06-22T12:41:34.000Z,39.308
2018-06-22T12:51:34.000Z,40.209
2018-06-22T13:01:34.000Z,39.2
2018-06-22T13:11:34.000Z,39.752
2018-06-22T13:21:34.000Z,39.956
2018-06-22T13:31:34.000Z,39.941
2018-06-22T13:41:34.000Z,40.055
2018-06-22T13:51:34.000Z,39.87
2018-06-22T14:01:34.000Z,39.249
2018-06-22T14:11:34.000Z,39.971
2018-06-22T14:21:34.000Z,39.902
2018-06-22T14:31:34.000Z,39.324
2018-06-22T14:41:34.000Z,39.041
2018-06-22T14:51:34.000Z,38.929
2018-06-22T15:01:35.000Z,38.881
2018-06-22T15:11:35.000Z,38.934
2018-06-22T15:21:35.000Z,38.71
2018-06-22T15:31:35.000Z,38.422
2018-06-22T15:41:35.000Z,38.49
2018-06-22T15:51:35.000Z,38.141
2018-06-22T16:01:35.000Z,38.238
2018-06-22T16:11:35.000Z,38.752
2018-06-22T16:21:35.000Z,38.209
2018-06-22T16:31:35.000Z,38.08
2018-06-22T16:41:35.000Z,38.418
2018-06-22T16:51:35.000Z,38.537
2018-06-22T17:01:35.000Z,38.544
2018-06-22T17:11:35.000Z,38.535
2018-06-22T17:21:35.000Z,38.218
2018-06-22T17:31:35.000Z,38.705
2018-06-22T17:51:35.000Z,38.873
2018-06-22T18:01:35.000Z,39.177
2018-06-22T18:11:35.000Z,39.149
2018-06-22T18:21:35.000Z,38.621
2018-06-22T18:31:35.000Z,38.976
2018-06-22T18:41:35.000Z,39.072
2018-06-22T18:51:35.000Z,39.136
2018-06-22T19:01:35.000Z,39.023
2018-06-22T19:11:35.000Z,39.182
2018-06-22T19:21:35.000Z,39.278
2018-06-22T19:31:35.000Z,39.772
2018-06-22T19:41:35.000Z,40.994
2018-06-22T19:51:36.000Z,41.177
2018-06-22T20:01:35.000Z,41.142
2018-06-22T20:11:35.000Z,40.807
2018-06-22T20:21:35.000Z,40.75
2018-06-22T20:31:35.000Z,40.793
2018-06-22T20:41:35.000Z,40.89
2018-06-22T20:51:36.000Z,40.712
2018-06-22T21:01:35.000Z,41.006
2018-06-22T21:11:35.000Z,41.333
2018-06-22T21:21:35.000Z,41.459
2018-06-22T21:31:35.000Z,41.629
2018-06-22T21:41:35.000Z,41.757
2018-06-22T21:51:35.000Z,41.896
2018-06-22T22:01:35.000Z,41.969
2018-06-22T22:11:35.000Z,42.054
2018-06-22T22:21:35.000Z,42.105
2018-06-22T22:31:35.000Z,42.21
2018-06-22T22:41:35.000Z,42.275
2018-06-22T22:51:35.000Z,42.358
2018-06-22T23:01:35.000Z,42.431
2018-06-22T23:11:35.000Z,42.56
2018-06-22T23:21:35.000Z,42.656
2018-06-22T23:31:35.000Z,42.675
2018-06-22T23:41:36.000Z,42.783
2018-06-22T23:51:36.000Z,42.867
